createdAt,value
2018-08-06T00:00:05.806Z,63.50
2018-08-06T00:02:41.273Z,62.90
2018-08-06T00:05:12.025Z,63.20
2018-08-06T00:07:41.707Z,63.50
2018-08-06T00:10:16.772Z,63.20
2018-08-06T00:12:53.271Z,63.30
2018-08-06T00:15:30.308Z,63.40
2018-08-06T00:18:00.610Z,64.10
2018-08-06T00:20:30.456Z,64.80
2018-08-06T00:22:59.894Z,63.70
2018-08-06T00:25:29.922Z,64.70
2018-08-06T00:27:59.771Z,63.00
2018-08-06T00:30:37.070Z,65.00
2018-08-06T00:37:54.215Z,65.80
2018-08-06T00:40:24.267Z,66.00
2018-08-06T00:43:03.072Z,66.60
2018-08-06T00:45:32.852Z,66.80
2018-08-06T00:48:10.203Z,66.90
2018-08-06T00:50:44.385Z,66.90
2018-08-06T00:53:13.783Z,67.00
2018-08-06T00:55:43.556Z,67.60
2018-08-06T00:58:22.202Z,67.90
2018-08-06T01:01:05.395Z,68.40
2018-08-06T01:03:41.674Z,68.80
2018-08-06T01:06:17.067Z,69.20
2018-08-06T01:08:48.699Z,69.60
2018-08-06T01:11:18.578Z,69.60
2018-08-06T01:13:48.425Z,69.80
2018-08-06T01:16:17.934Z,70.10
2018-08-06T01:18:48.945Z,70.20
2018-08-06T01:21:18.687Z,70.40
2018-08-06T01:23:55.234Z,70.40
2018-08-06T01:26:30.679Z,70.60
2018-08-06T01:29:05.594Z,70.90
2018-08-06T01:31:36.118Z,70.30
2018-08-06T01:34:05.678Z,70.80
2018-08-06T01:36:36.045Z,70.10
2018-08-06T01:39:08.756Z,70.60
2018-08-06T01:41:38.238Z,70.50
2018-08-06T01:44:08.518Z,70.90
2018-08-06T01:46:38.569Z,71.00
2018-08-06T01:49:14.842Z,71.10
2018-08-06T01:51:44.561Z,71.20
2018-08-06T01:54:20.627Z,71.60
2018-08-06T01:56:55.794Z,71.80
2018-08-06T01:59:34.709Z,71.80
2018-08-06T02:02:11.241Z,71.90
2018-08-06T02:04:47.905Z,71.80
2018-08-06T02:07:31.537Z,72.30
2018-08-06T02:10:10.418Z,71.70
2018-08-06T02:12:49.697Z,72.10
2018-08-06T04:01:03.149Z,76.20
2018-08-06T04:03:50.127Z,76.70
2018-08-06T04:06:27.575Z,76.10
2018-08-06T04:08:56.945Z,77.10
2018-08-06T04:11:33.127Z,77.30
2018-08-06T04:14:03.398Z,77.30
2018-08-06T04:16:40.552Z,77.30
2018-08-06T04:19:10.555Z,77.20
2018-08-06T04:21:40.233Z,77.30
2018-08-06T04:24:10.179Z,77.10
2018-08-06T04:26:45.575Z,77.30
2018-08-06T04:29:14.925Z,77.40
2018-08-06T04:31:44.333Z,77.10
2018-08-06T04:34:22.701Z,77.20
2018-08-06T04:36:52.557Z,77.40
2018-08-06T04:39:21.965Z,77.70
2018-08-06T04:41:58.472Z,77.90
2018-08-06T04:44:33.060Z,78.10
2018-08-06T04:47:02.576Z,77.80
2018-08-06T04:49:39.468Z,79.00
2018-08-06T04:52:14.451Z,77.60
2018-08-06T04:54:51.027Z,77.80
2018-08-06T04:57:20.585Z,78.00
2018-08-06T04:59:50.037Z,77.80
2018-08-06T05:02:26.289Z,77.70
2018-08-06T05:05:02.110Z,77.60
2018-08-06T05:07:31.505Z,77.20
2018-08-06T05:10:00.980Z,77.20
2018-08-06T05:12:48.925Z,77.20
2018-08-06T05:15:23.893Z,77.10
2018-08-06T05:17:53.302Z,76.70
2018-08-06T05:20:29.581Z,76.30
2018-08-06T05:22:59.418Z,76.20
2018-08-06T05:25:29.045Z,76.10
2018-08-06T05:28:06.578Z,75.90
2018-08-06T05:30:36.445Z,75.90
2018-08-06T05:33:05.909Z,75.50
2018-08-06T05:35:42.760Z,75.10
2018-08-06T05:38:18.013Z,75.30
2018-08-06T05:40:47.572Z,74.80
2018-08-06T05:43:17.084Z,74.50
2018-08-06T05:45:48.317Z,74.70
2018-08-06T05:48:17.863Z,74.70
2018-08-06T05:50:55.677Z,75.00
2018-08-06T05:53:25.196Z,75.10
2018-08-06T05:56:01.354Z,74.80
2018-08-06T05:58:30.711Z,75.30
2018-08-06T06:01:07.288Z,76.20
2018-08-06T06:03:37.098Z,76.40
2018-08-06T06:08:41.379Z,74.10
2018-08-06T06:11:11.604Z,73.70
2018-08-06T06:13:41.084Z,73.40
2018-08-06T06:16:10.577Z,73.10
2018-08-06T06:18:40.385Z,72.70
2018-08-06T06:21:11.499Z,72.80
2018-08-06T06:23:40.972Z,71.50
2018-08-06T06:26:16.254Z,72.10
2018-08-06T06:28:45.739Z,71.70
2018-08-06T06:31:22.970Z,72.10
2018-08-06T06:33:52.589Z,71.40
2018-08-06T06:36:22.435Z,71.30
2018-08-06T06:38:51.970Z,71.10
2018-08-06T06:41:21.368Z,70.90
2018-08-06T06:43:51.240Z,70.80
2018-08-06T06:46:33.628Z,71.00
2018-08-06T06:49:11.072Z,68.60
2018-08-06T06:51:46.419Z,69.40
2018-08-06T06:54:23.589Z,68.90
2018-08-06T06:57:02.682Z,67.10
2018-08-06T06:59:32.361Z,67.80
2018-08-06T07:02:01.965Z,67.50
2018-08-06T07:04:38.703Z,67.50
2018-08-06T07:07:08.545Z,67.20
2018-08-06T07:09:38.360Z,66.70
2018-08-06T07:12:07.849Z,65.80
2018-08-06T07:14:46.993Z,66.10
2018-08-06T07:17:16.641Z,64.30
2018-08-06T07:19:46.485Z,64.70
2018-08-06T07:22:16.132Z,64.10
2018-08-06T07:24:50.937Z,63.80
2018-08-06T07:27:26.129Z,61.70
2018-08-06T07:29:55.580Z,61.60
2018-08-06T07:32:25.093Z,60.20
2018-08-06T07:35:03.967Z,61.70
2018-08-06T07:37:33.471Z,59.90
2018-08-06T07:40:08.865Z,60.10
2018-08-06T07:42:38.577Z,59.80
2018-08-06T07:47:41.205Z,60.10
2018-08-06T07:50:13.000Z,59.00
2018-08-06T07:52:43.045Z,58.70
2018-08-06T07:55:12.513Z,58.90
2018-08-06T07:57:42.127Z,58.40
2018-08-06T08:00:16.996Z,58.70
2018-08-06T08:05:18.023Z,58.50
2018-08-06T08:07:48.590Z,58.10
2018-08-06T08:12:53.520Z,58.40
2018-08-06T08:15:25.697Z,58.00
2018-08-06T08:17:56.406Z,57.90
2018-08-06T08:20:26.938Z,57.80
2018-08-06T08:23:05.488Z,57.50
2018-08-06T08:25:40.777Z,57.50
2018-08-06T08:28:10.635Z,57.20
2018-08-06T08:30:40.068Z,56.70
2018-08-06T08:33:09.924Z,56.90
2018-08-06T08:35:39.721Z,55.90
2018-08-06T08:38:09.268Z,55.40
2018-08-06T08:40:43.865Z,55.60
2018-08-06T08:44:32.790Z,55.00
2018-08-06T08:47:02.253Z,53.60
2018-08-06T08:49:41.003Z,54.20
2018-08-06T08:52:15.435Z,54.40
2018-08-06T08:54:50.668Z,53.30
2018-08-06T08:57:21.242Z,53.60
2018-08-06T08:59:58.117Z,52.90
2018-08-06T09:02:28.013Z,52.70
2018-08-06T09:04:57.573Z,52.90
2018-08-06T09:07:27.304Z,51.20
2018-08-06T09:09:57.089Z,51.00
2018-08-06T09:12:33.865Z,51.60
2018-08-06T09:15:03.587Z,50.60
2018-08-06T09:17:33.094Z,50.10
2018-08-06T09:20:02.544Z,49.30
2018-08-06T09:22:46.115Z,49.20
2018-08-06T09:25:15.927Z,50.00
2018-08-06T09:27:51.869Z,49.00
2018-08-06T09:30:22.704Z,49.10
2018-08-06T09:32:54.322Z,48.10
2018-08-06T09:35:23.923Z,47.50
2018-08-06T09:37:53.568Z,47.10
2018-08-06T09:40:28.585Z,47.70
2018-08-06T09:42:58.059Z,48.30
2018-08-06T09:45:27.588Z,46.20
2018-08-06T09:47:57.309Z,47.00
2018-08-06T09:50:26.822Z,46.80
2018-08-06T09:52:56.553Z,47.00
2018-08-06T09:55:28.595Z,46.20
2018-08-06T09:58:13.470Z,45.30
2018-08-06T10:02:51.732Z,44.50
2018-08-06T10:05:22.273Z,44.90
2018-08-06T10:07:52.159Z,44.40
2018-08-06T10:10:30.508Z,44.10
2018-08-06T10:13:13.362Z,43.80
2018-08-06T10:15:42.966Z,44.40
2018-08-06T10:18:13.448Z,43.70
2018-08-06T10:20:43.384Z,43.30
2018-08-06T10:23:21.459Z,43.10
2018-08-06T10:25:50.984Z,41.70
2018-08-06T10:28:26.972Z,42.80
2018-08-06T10:30:56.826Z,42.10
2018-08-06T10:33:33.163Z,42.40
2018-08-06T10:36:02.700Z,42.20
2018-08-06T10:38:32.193Z,41.00
2018-08-06T10:41:01.601Z,40.40
2018-08-06T10:43:31.349Z,39.50
2018-08-06T10:46:14.870Z,39.00
2018-08-06T10:48:45.273Z,39.50
2018-08-06T10:51:14.729Z,39.90
2018-08-06T10:53:44.116Z,39.60
2018-08-06T10:56:18.301Z,37.90
2018-08-06T10:58:47.719Z,38.00
2018-08-06T11:01:17.160Z,38.70
2018-08-06T11:03:46.662Z,38.50
2018-08-06T11:06:16.123Z,37.40
2018-08-06T11:08:45.830Z,36.30
2018-08-06T11:11:15.350Z,37.10
2018-08-06T11:13:44.759Z,36.80
2018-08-06T11:16:14.536Z,36.20
2018-08-06T11:18:44.113Z,35.10
2018-08-06T11:21:13.675Z,34.80
2018-08-06T11:23:50.844Z,33.90
2018-08-06T11:26:25.635Z,32.40
2018-08-06T11:28:55.400Z,30.20
2018-08-06T11:31:32.540Z,31.20
2018-08-06T11:34:07.393Z,30.20
2018-08-06T11:36:37.137Z,29.60
2018-08-06T11:39:09.274Z,29.30
2018-08-06T11:41:39.117Z,28.70
2018-08-06T11:44:13.495Z,28.70
2018-08-06T11:46:49.676Z,30.00
2018-08-06T11:49:19.311Z,29.50
2018-08-06T11:51:55.547Z,27.50
2018-08-06T11:57:15.916Z,27.10
2018-08-06T11:59:51.639Z,26.30
2018-08-06T12:02:21.145Z,27.80
2018-08-06T12:04:51.873Z,26.50
2018-08-06T12:07:21.681Z,26.10
2018-08-06T12:09:51.112Z,25.90
2018-08-06T12:12:20.911Z,26.30
2018-08-06T12:14:50.593Z,25.00
2018-08-06T12:17:21.474Z,25.50
2018-08-06T12:19:50.867Z,24.40
2018-08-06T12:22:26.030Z,24.50
2018-08-06T12:24:55.418Z,23.90
2018-08-06T12:27:25.081Z,25.10
2018-08-06T12:30:01.840Z,25.00
2018-08-06T12:32:31.327Z,24.70
2018-08-06T12:35:00.847Z,24.60
2018-08-06T12:37:39.598Z,26.10
2018-08-06T12:40:21.497Z,25.40
2018-08-06T12:42:58.216Z,26.00
2018-08-06T12:45:34.796Z,25.90
2018-08-06T12:48:04.622Z,25.20
2018-08-06T12:50:34.776Z,25.90
2018-08-06T12:53:10.769Z,24.40
2018-08-06T12:55:40.298Z,25.10
2018-08-06T12:58:09.849Z,24.50
2018-08-06T13:00:39.328Z,23.90
2018-08-06T13:03:17.777Z,25.00
2018-08-06T13:08:16.596Z,25.20
2018-08-06T13:10:46.248Z,24.10
2018-08-06T13:13:16.085Z,22.70
2018-08-06T13:15:45.545Z,27.60
2018-08-06T13:18:15.374Z,47.50
2018-08-06T13:20:44.868Z,32.60
2018-08-06T13:23:14.585Z,49.70
2018-08-06T13:25:44.352Z,46.60
2018-08-06T13:28:13.963Z,40.80
2018-08-06T13:30:43.348Z,42.20
2018-08-06T13:33:13.062Z,43.30
2018-08-06T13:35:48.257Z,47.20
2018-08-06T13:38:22.972Z,44.50
2018-08-06T13:40:52.531Z,41.80
2018-08-06T13:43:28.966Z,37.60
2018-08-06T13:45:58.519Z,39.50
2018-08-06T13:48:27.976Z,40.60
2018-08-06T13:51:05.106Z,42.20
2018-08-06T13:53:36.889Z,38.50
2018-08-06T13:56:06.755Z,43.90
2018-08-06T13:58:41.203Z,45.90
2018-08-06T14:01:10.788Z,45.20
2018-08-06T14:03:47.295Z,39.20
2018-08-06T14:06:24.508Z,44.60
2018-08-06T14:08:53.974Z,39.00
2018-08-06T14:11:24.360Z,39.90
2018-08-06T14:13:53.759Z,40.60
2018-08-06T14:16:30.132Z,35.60
2018-08-06T14:18:59.847Z,37.40
2018-08-06T14:21:29.287Z,40.10
2018-08-06T14:23:58.789Z,43.70
2018-08-06T14:26:30.420Z,45.00
2018-08-06T14:28:59.938Z,40.00
2018-08-06T14:31:37.934Z,38.30
2018-08-06T14:34:23.809Z,38.50
2018-08-06T14:36:55.171Z,42.70
2018-08-06T14:39:25.027Z,37.70
2018-08-06T14:41:54.919Z,35.50
2018-08-06T14:44:29.060Z,38.40
2018-08-06T14:46:58.828Z,36.20
2018-08-06T14:49:29.092Z,39.10
2018-08-06T14:51:58.757Z,37.10
2018-08-06T14:54:28.500Z,37.40
2018-08-06T14:56:58.163Z,39.10
2018-08-06T14:59:27.671Z,35.50
2018-08-06T15:01:57.497Z,34.30
2018-08-06T15:04:26.945Z,33.60
2018-08-06T15:06:56.380Z,35.20
2018-08-06T15:09:26.335Z,37.70
2018-08-06T15:11:55.780Z,34.00
2018-08-06T15:14:25.624Z,38.50
2018-08-06T15:16:55.460Z,35.30
2018-08-06T15:19:27.196Z,35.40
2018-08-06T15:21:56.772Z,35.00
2018-08-06T15:24:26.757Z,34.00
2018-08-06T15:26:56.288Z,40.20
2018-08-06T15:29:26.219Z,40.60
2018-08-06T15:31:55.924Z,37.50
2018-08-06T15:34:25.320Z,34.80
2018-08-06T15:36:54.738Z,37.60
2018-08-06T15:39:28.747Z,35.00
2018-08-06T15:42:04.365Z,34.70
2018-08-06T15:44:33.839Z,36.00
2018-08-06T15:47:03.270Z,38.70
2018-08-06T15:49:32.699Z,40.30
2018-08-06T15:52:02.460Z,36.10
2018-08-06T15:54:31.909Z,36.80
2018-08-06T15:57:08.731Z,36.20
2018-08-06T15:59:49.990Z,39.80
2018-08-06T16:02:30.107Z,38.10
2018-08-06T16:05:13.428Z,36.90
2018-08-06T16:07:42.962Z,34.90
2018-08-06T16:10:13.428Z,36.30
2018-08-06T16:12:44.092Z,36.10
2018-08-06T16:15:14.540Z,35.10
2018-08-06T16:17:45.090Z,35.20
2018-08-06T16:20:18.558Z,34.70
2018-08-06T16:22:48.233Z,34.30
2018-08-06T16:25:19.273Z,34.00
2018-08-06T16:36:33.128Z,34.00
2018-08-06T16:39:02.842Z,35.30
2018-08-06T16:41:32.579Z,36.30
2018-08-06T16:44:02.071Z,39.60
2018-08-06T16:55:17.069Z,34.10
2018-08-06T16:57:46.529Z,33.80
2018-08-06T17:00:23.539Z,33.60
2018-08-06T17:02:53.768Z,36.80
2018-08-06T17:05:23.483Z,34.80
2018-08-06T17:07:59.768Z,37.50
2018-08-06T17:10:29.224Z,34.60
2018-08-06T17:12:58.869Z,36.20
2018-08-06T17:15:35.985Z,35.00
2018-08-06T17:18:05.695Z,36.00
2018-08-06T17:20:35.237Z,38.70
2018-08-06T17:23:04.706Z,35.70
2018-08-06T17:25:34.212Z,36.00
2018-08-06T17:28:03.848Z,35.70
2018-08-06T17:30:33.532Z,37.20
2018-08-06T17:33:08.297Z,35.80
2018-08-06T17:35:43.445Z,36.70
2018-08-06T17:38:13.220Z,37.60
2018-08-06T17:40:42.662Z,38.80
2018-08-06T17:43:21.132Z,40.10
2018-08-06T17:46:06.501Z,39.90
2018-08-06T17:51:05.151Z,42.30
2018-08-06T17:53:34.519Z,39.90
2018-08-06T17:56:12.590Z,43.80
2018-08-06T17:58:46.869Z,42.00
2018-08-06T18:01:16.366Z,41.80
2018-08-06T18:03:45.791Z,42.60
2018-08-06T18:06:15.600Z,41.50
2018-08-06T18:08:54.727Z,39.40
2018-08-06T18:11:29.637Z,42.20
2018-08-06T18:14:04.665Z,41.40
2018-08-06T18:16:40.145Z,42.10
2018-08-06T18:19:09.540Z,42.90
2018-08-06T18:21:39.093Z,43.20
2018-08-06T18:24:08.790Z,42.80
2018-08-06T18:26:38.224Z,44.60
2018-08-06T18:29:07.649Z,45.00
2018-08-06T18:31:37.398Z,44.90
2018-08-06T18:34:07.041Z,42.80
2018-08-06T18:36:43.821Z,43.90
2018-08-06T18:39:13.684Z,42.60
2018-08-06T18:41:49.898Z,47.80
2018-08-06T18:44:24.736Z,43.80
2018-08-06T18:46:54.236Z,46.10
2018-08-06T18:49:23.803Z,46.00
2018-08-06T18:51:53.245Z,44.90
2018-08-06T18:54:22.710Z,46.30
2018-08-06T18:56:52.416Z,46.10
2018-08-06T18:59:22.135Z,47.00
2018-08-06T19:01:58.423Z,42.90
2018-08-06T19:04:28.196Z,45.80
2018-08-06T19:07:02.039Z,47.80
2018-08-06T19:09:31.805Z,45.90
2018-08-06T19:12:15.116Z,46.20
2018-08-06T19:14:49.890Z,42.10
2018-08-06T19:17:25.816Z,42.80
2018-08-06T19:19:55.617Z,43.70
2018-08-06T19:22:32.234Z,47.20
2018-08-06T19:25:07.292Z,43.00
2018-08-06T19:27:37.100Z,42.50
2018-08-06T19:30:07.419Z,42.60
2018-08-06T19:32:37.235Z,42.70
2018-08-06T19:35:13.254Z,42.90
2018-08-06T19:37:50.773Z,43.20
2018-08-06T19:40:33.487Z,43.70
2018-08-06T19:43:08.206Z,43.50
2018-08-06T19:45:37.996Z,44.20
2018-08-06T19:48:16.542Z,43.70
2018-08-06T19:50:46.350Z,43.80
2018-08-06T19:53:15.875Z,43.30
2018-08-06T19:55:50.437Z,42.80
2018-08-06T19:58:20.228Z,43.60
2018-08-06T20:00:58.769Z,44.20
2018-08-06T20:03:44.145Z,47.30
2018-08-06T20:06:18.196Z,49.40
2018-08-06T20:08:52.507Z,48.40
2018-08-06T20:11:29.372Z,48.90
2018-08-06T20:13:59.246Z,50.20
2018-08-06T20:16:28.641Z,50.40
2018-08-06T20:18:58.156Z,49.60
2018-08-06T20:21:27.866Z,51.00
2018-08-06T20:24:07.169Z,50.80
2018-08-06T20:26:42.402Z,50.20
2018-08-06T20:29:12.039Z,51.10
2018-08-06T20:31:41.465Z,50.90
2018-08-06T20:34:11.262Z,50.50
2018-08-06T20:36:49.617Z,49.00
2018-08-06T20:39:22.616Z,51.10
2018-08-06T20:42:01.056Z,51.30
2018-08-06T20:44:30.889Z,52.40
2018-08-06T20:47:00.297Z,50.00
2018-08-06T20:49:29.677Z,48.60
2018-08-06T20:52:06.536Z,48.90
2018-08-06T20:54:36.157Z,48.70
2018-08-06T20:57:13.296Z,48.40
2018-08-06T20:59:42.817Z,50.40
2018-08-06T21:02:22.924Z,50.40
2018-08-06T21:04:52.416Z,51.00
2018-08-06T21:07:28.947Z,51.50
2018-08-06T21:10:05.583Z,52.80
2018-08-06T21:12:41.406Z,52.20
2018-08-06T21:15:15.891Z,53.00
2018-08-06T21:17:45.931Z,51.00
2018-08-06T21:20:22.601Z,50.60
2018-08-06T21:22:56.609Z,52.70
2018-08-06T21:25:26.108Z,53.20
2018-08-06T21:28:00.518Z,53.30
2018-08-06T21:30:29.991Z,50.60
2018-08-06T21:33:10.809Z,50.70
2018-08-06T21:35:49.437Z,50.80
2018-08-06T21:38:18.841Z,52.80
2018-08-06T21:40:48.723Z,54.10
2018-08-06T21:43:18.217Z,54.60
2018-08-06T21:45:48.527Z,54.40
2018-08-06T21:48:18.607Z,55.00
2018-08-06T21:50:48.078Z,54.60
2018-08-06T21:53:18.064Z,52.20
2018-08-06T21:55:48.872Z,51.70
2018-08-06T21:58:18.919Z,54.50
2018-08-06T22:00:48.375Z,53.70
2018-08-06T22:03:19.350Z,55.40
2018-08-06T22:05:49.442Z,52.50
2018-08-06T22:08:26.371Z,52.20
2018-08-06T22:11:00.860Z,54.30
2018-08-06T22:13:30.923Z,54.00
2018-08-06T22:16:07.648Z,52.60
2018-08-06T22:18:51.376Z,52.40
2018-08-06T22:21:24.762Z,52.40
2018-08-06T22:26:39.152Z,55.30
2018-08-06T22:29:14.595Z,55.40
2018-08-06T22:31:49.782Z,55.10
2018-08-06T22:34:19.969Z,54.90
2018-08-06T22:36:55.296Z,56.50
2018-08-06T22:39:24.772Z,56.50
2018-08-06T22:44:32.773Z,57.50
2018-08-06T22:47:16.839Z,56.80
2018-08-06T22:49:53.737Z,57.10
2018-08-06T22:52:36.589Z,55.20
2018-08-06T22:55:13.881Z,56.00
2018-08-06T22:57:50.153Z,55.70
2018-08-06T23:00:19.948Z,56.10
2018-08-06T23:02:50.016Z,56.20
2018-08-06T23:05:24.928Z,56.20
2018-08-06T23:07:54.809Z,56.30
2018-08-06T23:10:32.317Z,56.30
2018-08-06T23:13:21.552Z,56.20
2018-08-06T23:15:51.934Z,56.90
2018-08-06T23:42:26.840Z,57.70
2018-08-06T23:45:02.091Z,59.10
2018-08-06T23:47:31.990Z,58.10
2018-08-06T23:50:13.484Z,58.40
2018-08-06T23:52:51.948Z,58.70
2018-08-06T23:55:21.671Z,58.90
2018-08-06T23:58:00.920Z,59.20
